Time;durP1;ratioP1;P1;durP2;ratioP2;P2;SDS_P1;SDS_P2;PMS_P1;PMS_P2;Temp;Humidity;BMP_temperature;BMP_pressure;BME280_temperature;BME280_humidity;BME280_pressure;Samples;Min_cycle;Max_cycle;Signal;HPM_P1;HPM_P2
2021/08/14 00:02:01;;;;;;;;;;;;;;;18.75;100.00;101247.38;5090557;28;20268;-70
2021/08/14 00:04:27;;;;;;;;;;;;;;;18.66;100.00;101251.97;5091005;28;20313;-67
2021/08/14 00:06:53;;;;;;;;;;;;;;;18.59;100.00;101259.19;5090995;28;19947;-68
2021/08/14 00:09:19;;;;;;;;;;;;;;;18.58;100.00;101268.44;5094876;28;19971;-67
2021/08/14 00:11:46;;;;;;;;;;;;;;;18.51;100.00;101270.13;5094724;28;19928;-67
2021/08/14 00:14:12;;;;;;;;;;;;;;;18.52;100.00;101269.97;5094729;28;20019;-67
2021/08/14 00:16:38;;;;;;;;;;;;;;;18.54;100.00;101270.66;5094507;28;20019;-69
2021/08/14 00:19:06;;;;;;;;;;;;;;;18.52;100.00;101272.72;5094544;28;19956;-67
2021/08/14 00:21:32;;;;;;;;;;;;;;;18.53;100.00;101270.81;5094574;28;20335;-69
2021/08/14 00:23:59;;;;;;;;;;;;;;;18.50;100.00;101266.50;5094528;28;20017;-69
2021/08/14 00:26:25;;;;;;;;;;;;;;;18.49;100.00;101273.06;5094538;28;20057;-67
2021/08/14 00:28:51;;;;;;;;;;;;;;;18.45;100.00;101263.38;5094584;28;20010;-67
2021/08/14 00:31:18;;;;;;;;;;;;;;;18.46;100.00;101272.50;5094544;28;19963;-67
2021/08/14 00:33:44;;;;;;;;;;;;;;;18.44;100.00;101263.56;5094648;28;20011;-66
2021/08/14 00:36:12;;;;;;;;;;;;;;;18.42;100.00;101276.63;5094287;28;19923;-69
2021/08/14 00:38:38;;;;;;;;;;;;;;;18.45;100.00;101273.53;5094068;28;20026;-70
2021/08/14 00:41:04;;;;;;;;;;;;;;;18.48;100.00;101278.69;5093966;28;19965;-70
2021/08/14 00:43:31;;;;;;;;;;;;;;;18.48;100.00;101279.56;5093796;28;20017;-70
2021/08/14 00:45:58;;;;;;;;;;;;;;;18.48;100.00;101282.31;5093811;28;20027;-70
2021/08/14 00:48:24;;;;;;;;;;;;;;;18.50;100.00;101272.00;5093816;28;20015;-69
2021/08/14 00:50:52;;;;;;;;;;;;;;;18.48;100.00;101273.19;5093457;28;20026;-66
2021/08/14 00:53:20;;;;;;;;;;;;;;;18.46;100.00;101278.84;5091691;28;20145;-69
2021/08/14 00:55:46;;;;;;;;;;;;;;;18.44;100.00;101285.53;5093277;28;19955;-69
2021/08/14 00:58:13;;;;;;;;;;;;;;;18.37;100.00;101297.19;5093778;28;20019;-66
2021/08/14 01:00:40;;;;;;;;;;;;;;;18.30;100.00;101295.25;5075195;28;20341;-67
2021/08/14 01:03:06;;;;;;;;;;;;;;;18.23;100.00;101292.28;5093584;28;19993;-70
2021/08/14 01:05:33;;;;;;;;;;;;;;;18.26;100.00;101291.97;5075242;28;20010;-66
2021/08/14 01:07:59;;;;;;;;;;;;;;;18.29;100.00;101299.03;5093413;28;19924;-69
2021/08/14 01:10:27;;;;;;;;;;;;;;;18.26;100.00;101289.22;5093397;28;20057;-67
2021/08/14 01:12:54;;;;;;;;;;;;;;;18.16;100.00;101286.56;5092492;28;20027;-69
2021/08/14 01:15:20;;;;;;;;;;;;;;;18.08;100.00;101286.53;5091551;28;20032;-71
2021/08/14 01:17:47;;;;;;;;;;;;;;;17.99;100.00;101287.47;5092833;28;19928;-68
2021/08/14 01:20:14;;;;;;;;;;;;;;;17.89;100.00;101287.53;5093109;28;20016;-68
2021/08/14 01:22:40;;;;;;;;;;;;;;;17.82;100.00;101294.69;5093382;28;19924;-68
2021/08/14 01:25:08;;;;;;;;;;;;;;;17.74;100.00;101304.59;5092877;28;20298;-69
2021/08/14 01:27:36;;;;;;;;;;;;;;;17.66;100.00;101292.66;5092974;28;19967;-68
2021/08/14 01:30:02;;;;;;;;;;;;;;;17.58;100.00;101296.19;5074531;28;20027;-68
2021/08/14 01:32:29;;;;;;;;;;;;;;;17.49;100.00;101295.25;5092848;28;20031;-68
2021/08/14 01:34:55;;;;;;;;;;;;;;;17.44;100.00;101305.84;5092656;28;19952;-68
2021/08/14 01:37:22;;;;;;;;;;;;;;;17.35;100.00;101309.50;5092602;28;19955;-68
2021/08/14 01:39:48;;;;;;;;;;;;;;;17.24;100.00;101308.69;5092415;28;19971;-68
2021/08/14 01:42:14;;;;;;;;;;;;;;;17.14;100.00;101307.91;5092609;28;19931;-68
2021/08/14 01:44:42;;;;;;;;;;;;;;;17.04;100.00;101310.69;5092354;28;20026;-68
2021/08/14 01:47:09;;;;;;;;;;;;;;;16.94;100.00;101306.28;5092528;28;19936;-69
2021/08/14 01:49:35;;;;;;;;;;;;;;;16.87;100.00;101317.81;5092479;28;20447;-71
2021/08/14 01:52:08;;;;;;;;;;;;;;;16.86;100.00;101312.50;5092680;28;19924;-71
2021/08/14 01:54:34;;;;;;;;;;;;;;;16.78;100.00;101320.63;5092627;28;19935;-70
2021/08/14 01:57:01;;;;;;;;;;;;;;;16.71;100.00;101318.47;5092073;28;19930;-70
2021/08/14 01:59:27;;;;;;;;;;;;;;;16.68;100.00;101323.41;5092483;28;20027;-68
2021/08/14 02:01:55;;;;;;;;;;;;;;;16.65;100.00;101316.34;5092729;28;20016;-68
2021/08/14 02:04:21;;;;;;;;;;;;;;;16.62;100.00;101316.66;5092554;28;20342;-68
2021/08/14 02:06:47;;;;;;;;;;;;;;;16.62;100.00;101324.88;5092248;28;20481;-68
2021/08/14 02:09:14;;;;;;;;;;;;;;;16.57;100.00;101317.09;5092220;28;19960;-70
2021/08/14 02:11:40;;;;;;;;;;;;;;;16.51;100.00;101312.19;5092069;28;20323;-70
2021/08/14 02:14:06;;;;;;;;;;;;;;;16.44;100.00;101318.44;5092350;28;19969;-70
2021/08/14 02:16:33;;;;;;;;;;;;;;;16.31;100.00;101324.25;5091888;28;19934;-70
2021/08/14 02:19:01;;;;;;;;;;;;;;;16.19;100.00;101329.00;5092059;28;19931;-70
2021/08/14 02:21:28;;;;;;;;;;;;;;;16.14;100.00;101321.25;5091890;28;20010;-70
2021/08/14 02:23:55;;;;;;;;;;;;;;;16.12;100.00;101326.00;5091874;28;20379;-70
2021/08/14 02:26:21;;;;;;;;;;;;;;;16.15;100.00;101327.59;5092108;28;20010;-68
2021/08/14 02:28:48;;;;;;;;;;;;;;;16.12;100.00;101331.47;5091674;28;19924;-68
2021/08/14 02:31:15;;;;;;;;;;;;;;;16.10;100.00;101333.50;5091545;28;19931;-68
2021/08/14 02:33:41;;;;;;;;;;;;;;;16.12;100.00;101325.16;5091976;28;20343;-68
2021/08/14 02:36:09;;;;;;;;;;;;;;;16.15;100.00;101322.97;5091856;28;19924;-68
2021/08/14 02:38:36;;;;;;;;;;;;;;;16.13;100.00;101321.38;5073206;28;20007;-68
2021/08/14 02:41:03;;;;;;;;;;;;;;;16.13;100.00;101313.16;5090763;28;20426;-68
2021/08/14 02:43:29;;;;;;;;;;;;;;;16.11;100.00;101327.00;5090763;28;19964;-70
2021/08/14 02:45:56;;;;;;;;;;;;;;;16.14;100.00;101323.09;5089850;28;20383;-68
2021/08/14 02:48:22;;;;;;;;;;;;;;;16.19;100.00;101331.75;5090342;28;20014;-68
2021/08/14 02:50:48;;;;;;;;;;;;;;;16.23;100.00;101330.44;5091344;28;20030;-66
2021/08/14 02:53:16;;;;;;;;;;;;;;;16.26;100.00;101335.66;5091213;28;20391;-67
2021/08/14 02:55:42;;;;;;;;;;;;;;;16.30;100.00;101336.19;5091252;28;19931;-68
2021/08/14 02:58:09;;;;;;;;;;;;;;;16.33;100.00;101335.94;5090991;28;19935;-68
2021/08/14 03:00:35;;;;;;;;;;;;;;;16.35;100.00;101328.41;5091396;28;20403;-68
2021/08/14 03:03:01;;;;;;;;;;;;;;;16.40;100.00;101332.41;5073706;28;19934;-68
2021/08/14 03:05:28;;;;;;;;;;;;;;;16.42;100.00;101332.25;5091244;28;19931;-68
2021/08/14 03:07:54;;;;;;;;;;;;;;;16.43;100.00;101334.00;5091426;28;19959;-69
2021/08/14 03:10:21;;;;;;;;;;;;;;;16.40;100.00;101332.41;5091375;28;19928;-69
2021/08/14 03:12:48;;;;;;;;;;;;;;;16.39;100.00;101336.19;5091657;28;20047;-70
2021/08/14 03:15:15;;;;;;;;;;;;;;;16.37;100.00;101334.63;5090768;28;20043;-71
2021/08/14 03:17:41;;;;;;;;;;;;;;;16.38;100.00;101336.31;5073005;28;19930;-70
2021/08/14 03:20:08;;;;;;;;;;;;;;;16.38;100.00;101331.72;5091354;28;19924;-71
2021/08/14 03:22:34;;;;;;;;;;;;;;;16.38;100.00;101334.47;5091307;28;19959;-70
2021/08/14 03:25:00;;;;;;;;;;;;;;;16.37;100.00;101329.13;5091367;28;19927;-71
2021/08/14 03:27:28;;;;;;;;;;;;;;;16.33;100.00;101325.81;5090971;28;20009;-68
2021/08/14 03:29:54;;;;;;;;;;;;;;;16.29;100.00;101334.47;5091375;28;19970;-68
2021/08/14 03:32:21;;;;;;;;;;;;;;;16.22;100.00;101331.44;5073014;28;20459;-68
2021/08/14 03:34:47;;;;;;;;;;;;;;;16.19;100.00;101337.22;5091149;28;20019;-68
2021/08/14 03:37:13;;;;;;;;;;;;;;;16.18;100.00;101338.22;5090975;28;19971;-69
2021/08/14 03:39:40;;;;;;;;;;;;;;;16.18;100.00;101341.84;5090829;28;20073;-69
2021/08/14 03:42:06;;;;;;;;;;;;;;;16.13;100.00;101351.50;5091647;28;20023;-69
2021/08/14 03:44:34;;;;;;;;;;;;;;;16.08;100.00;101360.16;5094912;28;20023;-70
2021/08/14 03:47:00;;;;;;;;;;;;;;;16.05;100.00;101357.72;5094924;28;19924;-69
2021/08/14 03:49:26;;;;;;;;;;;;;;;16.03;100.00;101354.25;5094999;28;19928;-70
2021/08/14 03:51:52;;;;;;;;;;;;;;;16.01;100.00;101351.66;5094834;28;19924;-69
2021/08/14 03:54:19;;;;;;;;;;;;;;;16.01;100.00;101353.56;5094856;28;19928;-70
2021/08/14 03:56:45;;;;;;;;;;;;;;;16.00;100.00;101351.81;5094436;28;20381;-69
2021/08/14 03:59:11;;;;;;;;;;;;;;;16.01;100.00;101348.06;5094409;28;20294;-70
2021/08/14 04:01:39;;;;;;;;;;;;;;;15.98;100.00;101337.41;5094464;28;20018;-68
2021/08/14 04:04:05;;;;;;;;;;;;;;;16.01;100.00;101342.59;5094623;28;19924;-67
2021/08/14 04:06:31;;;;;;;;;;;;;;;16.04;100.00;101345.88;5094328;28;19930;-67
2021/08/14 04:08:58;;;;;;;;;;;;;;;16.06;100.00;101354.84;5075777;28;20022;-67
2021/08/14 04:11:24;;;;;;;;;;;;;;;16.08;100.00;101357.44;5094310;28;20035;-68
2021/08/14 04:13:50;;;;;;;;;;;;;;;16.12;100.00;101358.00;5094381;28;19928;-69
2021/08/14 04:16:16;;;;;;;;;;;;;;;16.14;100.00;101359.59;5094479;28;20030;-69
2021/08/14 04:18:44;;;;;;;;;;;;;;;16.13;100.00;101355.13;5094372;28;20364;-70
2021/08/14 04:21:10;;;;;;;;;;;;;;;16.12;100.00;101355.28;5094388;28;20312;-69
2021/08/14 04:23:36;;;;;;;;;;;;;;;16.04;100.00;101348.63;5094263;28;19930;-70
2021/08/14 04:26:03;;;;;;;;;;;;;;;15.98;100.00;101353.81;5093909;28;19967;-69
2021/08/14 04:28:29;;;;;;;;;;;;;;;15.96;100.00;101351.22;5093956;28;19978;-69
2021/08/14 04:30:56;;;;;;;;;;;;;;;15.90;100.00;101358.16;5094023;28;19960;-70
2021/08/14 04:33:22;;;;;;;;;;;;;;;15.88;100.00;101354.69;5093915;28;20018;-69
2021/08/14 04:35:50;;;;;;;;;;;;;;;15.83;100.00;101375.28;5093879;28;19987;-70
2021/08/14 04:38:16;;;;;;;;;;;;;;;15.80;100.00;101368.22;5093729;28;19931;-70
2021/08/14 04:40:42;;;;;;;;;;;;;;;15.79;100.00;101369.19;5093694;28;19981;-70
2021/08/14 04:43:09;;;;;;;;;;;;;;;15.80;100.00;101365.50;5093735;28;20375;-71
2021/08/14 04:45:35;;;;;;;;;;;;;;;15.86;100.00;101370.41;5090111;28;20687;-67
2021/08/14 04:48:01;;;;;;;;;;;;;;;15.95;100.00;101370.53;5085022;28;19928;-66
2021/08/14 04:50:28;;;;;;;;;;;;;;;16.04;100.00;101367.78;5085958;28;20023;-65
2021/08/14 04:52:55;;;;;;;;;;;;;;;16.13;100.00;101367.94;5091843;28;20014;-65
2021/08/14 04:55:21;;;;;;;;;;;;;;;16.21;100.00;101366.19;5076900;28;19928;-65
2021/08/14 04:57:48;;;;;;;;;;;;;;;16.33;100.00;101353.22;5073239;28;20461;-65
2021/08/14 05:00:14;;;;;;;;;;;;;;;16.47;100.00;101362.84;5072116;28;19925;-65
2021/08/14 05:02:41;;;;;;;;;;;;;;;16.57;100.00;101354.59;5071399;28;20015;-65
2021/08/14 05:05:08;;;;;;;;;;;;;;;16.67;100.00;101351.81;5072584;28;20018;-65
2021/08/14 05:07:34;;;;;;;;;;;;;;;16.76;100.00;101350.06;5072395;28;20352;-65
2021/08/14 05:10:01;;;;;;;;;;;;;;;16.82;100.00;101349.44;5073081;28;19925;-66
2021/08/14 05:12:28;;;;;;;;;;;;;;;16.88;100.00;101355.19;5073044;28;20019;-69
2021/08/14 05:14:54;;;;;;;;;;;;;;;16.93;100.00;101356.66;5072894;28;19928;-70
2021/08/14 05:17:20;;;;;;;;;;;;;;;17.01;100.00;101356.75;5072901;28;19967;-69
2021/08/14 05:19:46;;;;;;;;;;;;;;;17.06;100.00;101347.06;5072908;28;19935;-72
2021/08/14 05:22:13;;;;;;;;;;;;;;;17.14;100.00;101345.44;5073173;28;19924;-66
2021/08/14 05:24:39;;;;;;;;;;;;;;;17.16;100.00;101340.69;5072681;28;20074;-66
2021/08/14 05:27:07;;;;;;;;;;;;;;;17.22;100.00;101334.56;5072034;28;19924;-66
2021/08/14 05:29:33;;;;;;;;;;;;;;;17.31;100.00;101338.28;5072833;28;20007;-66
2021/08/14 05:31:59;;;;;;;;;;;;;;;17.40;100.00;101346.44;5071638;28;20447;-70
2021/08/14 05:34:25;;;;;;;;;;;;;;;17.51;100.00;101334.38;5072948;28;20372;-70
2021/08/14 05:36:52;;;;;;;;;;;;;;;17.68;100.00;101337.31;5073108;28;19972;-69
2021/08/14 05:39:18;;;;;;;;;;;;;;;17.95;100.00;101347.34;5066727;28;20007;-70
2021/08/14 05:41:47;;;;;;;;;;;;;;;18.24;100.00;101340.72;5090982;28;20024;-70
2021/08/14 05:44:15;;;;;;;;;;;;;;;18.45;100.00;101340.34;5092387;28;19928;-69
2021/08/14 05:46:41;;;;;;;;;;;;;;;18.75;100.00;101349.13;5090502;28;19974;-70
2021/08/14 05:49:08;;;;;;;;;;;;;;;18.90;100.00;101344.75;5072489;28;20014;-69
2021/08/14 05:51:35;;;;;;;;;;;;;;;19.06;100.00;101356.88;5091679;28;20022;-69
2021/08/14 05:54:01;;;;;;;;;;;;;;;19.36;100.00;101347.19;5092800;28;19928;-69
2021/08/14 05:56:28;;;;;;;;;;;;;;;19.64;100.00;101343.28;5076448;28;19932;-69
2021/08/14 05:58:54;;;;;;;;;;;;;;;19.84;100.00;101353.00;5081912;28;20027;-68
2021/08/14 06:01:22;;;;;;;;;;;;;;;20.34;100.00;101358.50;5076530;28;19951;-69
2021/08/14 06:03:48;;;;;;;;;;;;;;;20.25;100.00;101365.91;5078262;28;19978;-68
2021/08/14 06:06:14;;;;;;;;;;;;;;;20.26;100.00;101359.38;5090290;28;19928;-65
2021/08/14 06:08:40;;;;;;;;;;;;;;;20.33;100.00;101354.88;5091046;28;19959;-65
2021/08/14 06:11:07;;;;;;;;;;;;;;;20.65;100.00;101353.09;5092220;28;20027;-65
2021/08/14 06:13:33;;;;;;;;;;;;;;;20.87;100.00;101350.66;5078113;28;20308;-66
2021/08/14 06:15:59;;;;;;;;;;;;;;;21.51;100.00;101350.53;5091555;28;19986;-67
2021/08/14 06:18:27;;;;;;;;;;;;;;;21.29;100.00;101352.22;5091686;28;20018;-66
2021/08/14 06:20:53;;;;;;;;;;;;;;;20.92;100.00;101344.63;5091092;28;19931;-66
2021/08/14 06:23:19;;;;;;;;;;;;;;;20.74;100.00;101340.19;5090703;28;19930;-66
2021/08/14 06:25:45;;;;;;;;;;;;;;;20.63;100.00;101338.63;5091335;28;19924;-68
2021/08/14 06:28:12;;;;;;;;;;;;;;;20.58;100.00;101341.06;5091101;28;20019;-68
2021/08/14 06:30:38;;;;;;;;;;;;;;;20.46;100.00;101342.47;5091916;28;20399;-68
2021/08/14 06:33:04;;;;;;;;;;;;;;;20.42;100.00;101339.19;5080599;28;20298;-69
2021/08/14 06:35:32;;;;;;;;;;;;;;;20.53;100.00;101341.56;5089513;28;19924;-68
2021/08/14 06:37:58;;;;;;;;;;;;;;;21.01;100.00;101336.13;5087526;28;19924;-69
2021/08/14 06:40:25;;;;;;;;;;;;;;;21.16;100.00;101338.13;5075338;28;20023;-66
2021/08/14 06:42:51;;;;;;;;;;;;;;;21.14;100.00;101341.06;5091722;28;20027;-68
2021/08/14 06:45:17;;;;;;;;;;;;;;;21.10;100.00;101336.94;5087616;28;20023;-68
2021/08/14 06:47:43;;;;;;;;;;;;;;;20.97;100.00;101347.69;5091776;28;19934;-66
2021/08/14 06:50:10;;;;;;;;;;;;;;;20.83;100.00;101333.59;5077002;28;20023;-65
2021/08/14 06:52:37;;;;;;;;;;;;;;;20.91;100.00;101335.47;5080322;28;20022;-69
2021/08/14 06:55:04;;;;;;;;;;;;;;;21.11;100.00;101338.69;5087046;28;20011;-66
2021/08/14 06:57:30;;;;;;;;;;;;;;;20.93;100.00;101338.06;5089404;28;19930;-65
2021/08/14 06:59:58;;;;;;;;;;;;;;;21.01;100.00;101340.78;5091375;28;19924;-66
2021/08/14 07:02:24;;;;;;;;;;;;;;;21.07;100.00;101337.28;5090656;28;20015;-70
2021/08/14 07:04:50;;;;;;;;;;;;;;;20.99;100.00;101340.09;5072758;28;19928;-70
2021/08/14 07:07:17;;;;;;;;;;;;;;;20.69;100.00;101348.97;5088888;28;20039;-70
2021/08/14 07:09:44;;;;;;;;;;;;;;;20.71;100.00;101357.06;5081994;28;19928;-66
2021/08/14 07:12:11;;;;;;;;;;;;;;;20.48;100.00;101354.16;5071838;28;19931;-70
2021/08/14 07:14:37;;;;;;;;;;;;;;;20.59;100.00;101351.06;5075403;28;20015;-70
2021/08/14 07:17:03;;;;;;;;;;;;;;;20.99;100.00;101349.25;5073588;28;19959;-70
2021/08/14 07:19:30;;;;;;;;;;;;;;;21.30;100.00;101339.25;5076247;28;19976;-70
2021/08/14 07:21:56;;;;;;;;;;;;;;;21.96;100.00;101341.63;5075545;28;20367;-70
2021/08/14 07:24:22;;;;;;;;;;;;;;;22.48;100.00;101351.03;5076153;28;20026;-68
2021/08/14 07:26:50;;;;;;;;;;;;;;;22.69;100.00;101350.31;5076723;28;19924;-67
2021/08/14 07:29:16;;;;;;;;;;;;;;;22.74;100.00;101347.81;5084813;28;19931;-67
2021/08/14 07:31:42;;;;;;;;;;;;;;;22.76;100.00;101342.94;5075958;28;20011;-70
2021/08/14 07:34:09;;;;;;;;;;;;;;;23.00;100.00;101340.94;5076310;28;19935;-67
2021/08/14 07:36:35;;;;;;;;;;;;;;;22.88;100.00;101346.94;5078192;28;20027;-71
2021/08/14 07:39:01;;;;;;;;;;;;;;;23.21;100.00;101349.34;5081903;28;20031;-67
2021/08/14 07:41:27;;;;;;;;;;;;;;;23.47;100.00;101342.41;5074890;28;20020;-68
2021/08/14 07:43:55;;;;;;;;;;;;;;;23.47;100.00;101347.09;5074889;28;20287;-67
2021/08/14 07:46:21;;;;;;;;;;;;;;;23.41;100.00;101348.75;5074975;28;20302;-71
2021/08/14 07:48:48;;;;;;;;;;;;;;;24.01;100.00;101343.00;5075280;28;20370;-67
2021/08/14 07:51:14;;;;;;;;;;;;;;;24.57;100.00;101343.03;5075123;28;20026;-71
2021/08/14 07:53:40;;;;;;;;;;;;;;;24.52;100.00;101342.78;5074803;28;20010;-71
2021/08/14 07:56:06;;;;;;;;;;;;;;;23.82;100.00;101342.56;5074656;28;19924;-68
2021/08/14 07:58:33;;;;;;;;;;;;;;;23.30;100.00;101352.00;5074456;28;19928;-70
2021/08/14 08:01:01;;;;;;;;;;;;;;;22.93;100.00;101345.50;5074671;28;20043;-70
2021/08/14 08:03:27;;;;;;;;;;;;;;;23.18;100.00;101348.88;5075106;28;19933;-70
2021/08/14 08:05:54;;;;;;;;;;;;;;;24.35;100.00;101347.78;5081126;28;19924;-70
2021/08/14 08:08:20;;;;;;;;;;;;;;;24.99;100.00;101343.09;5074317;28;19978;-71
2021/08/14 08:10:46;;;;;;;;;;;;;;;25.23;100.00;101338.94;5074392;28;19924;-66
2021/08/14 08:13:12;;;;;;;;;;;;;;;25.54;100.00;101337.59;5074482;28;19933;-70
2021/08/14 08:15:39;;;;;;;;;;;;;;;26.10;100.00;101329.16;5093253;28;19947;-68
2021/08/14 08:18:06;;;;;;;;;;;;;;;25.69;100.00;101328.22;5094600;28;20030;-70
2021/08/14 08:20:32;;;;;;;;;;;;;;;25.42;100.00;101325.38;5094371;28;20023;-70
2021/08/14 08:22:59;;;;;;;;;;;;;;;25.24;100.00;101326.78;5094801;28;19924;-70
2021/08/14 08:25:25;;;;;;;;;;;;;;;25.74;100.00;101328.44;5094374;28;20023;-67
2021/08/14 08:27:51;;;;;;;;;;;;;;;25.92;100.00;101315.84;5093625;28;19924;-68
2021/08/14 08:30:20;;;;;;;;;;;;;;;25.68;100.00;101315.38;5094466;28;19978;-70
2021/08/14 08:32:46;;;;;;;;;;;;;;;25.82;100.00;101325.47;5094125;28;20020;-70
2021/08/14 08:35:14;;;;;;;;;;;;;;;25.92;99.26;101318.63;5093735;28;20018;-66
2021/08/14 08:37:40;;;;;;;;;;;;;;;26.37;99.48;101307.75;5092002;28;20013;-66
2021/08/14 08:40:07;;;;;;;;;;;;;;;26.94;98.16;101307.19;5092161;28;19967;-66
2021/08/14 08:42:33;;;;;;;;;;;;;;;27.59;91.46;101306.28;5092435;28;19924;-66
2021/08/14 08:45:00;;;;;;;;;;;;;;;27.29;80.94;101304.91;5092402;28;20272;-71
2021/08/14 08:47:29;;;;;;;;;;;;;;;27.08;82.44;101303.28;5092620;28;19924;-71
2021/08/14 08:49:56;;;;;;;;;;;;;;;26.38;87.32;101299.16;5093004;28;20429;-68
2021/08/14 08:52:24;;;;;;;;;;;;;;;26.42;88.41;101309.88;5094213;28;20319;-71
2021/08/14 08:54:51;;;;;;;;;;;;;;;26.16;90.54;101298.56;5093662;28;19931;-71
2021/08/14 08:57:18;;;;;;;;;;;;;;;26.40;85.47;101285.91;5075886;28;19946;-66
2021/08/14 08:59:44;;;;;;;;;;;;;;;26.28;87.99;101297.91;5093535;28;19968;-71
2021/08/14 09:02:21;;;;;;;;;;;;;;;26.47;89.17;101297.03;5093809;28;20019;-71
2021/08/14 09:04:47;;;;;;;;;;;;;;;26.16;88.82;101295.78;5093671;28;19924;-66
2021/08/14 09:07:26;;;;;;;;;;;;;;;25.66;90.60;101296.13;5093426;28;20020;-66
2021/08/14 09:09:57;;;;;;;;;;;;;;;25.34;94.09;101290.28;5093699;28;20028;-66
2021/08/14 09:12:29;;;;;;;;;;;;;;;25.12;94.37;101289.56;5093652;28;20469;-71
2021/08/14 09:14:55;;;;;;;;;;;;;;;24.74;99.01;101285.31;5093686;28;19924;-65
2021/08/14 09:17:25;;;;;;;;;;;;;;;24.36;98.55;101288.47;5093516;28;19931;-65
2021/08/14 09:20:04;;;;;;;;;;;;;;;24.15;100.00;101288.53;5093272;28;20038;-65
2021/08/14 09:22:30;;;;;;;;;;;;;;;25.00;100.00;101288.41;5093539;28;20156;-71
2021/08/14 09:25:09;;;;;;;;;;;;;;;25.94;88.46;101270.06;5093143;28;19985;-65
2021/08/14 09:27:48;;;;;;;;;;;;;;;26.38;88.39;101276.91;5093230;28;19924;-65
2021/08/14 09:30:14;;;;;;;;;;;;;;;25.96;89.72;101279.03;5093342;28;20406;-65
2021/08/14 09:32:40;;;;;;;;;;;;;;;26.33;87.04;101270.28;5093242;28;19924;-71
2021/08/14 09:35:08;;;;;;;;;;;;;;;25.65;83.61;101261.06;5093446;28;19924;-71
2021/08/14 09:37:37;;;;;;;;;;;;;;;25.50;85.56;101269.59;5092842;28;19985;-71
2021/08/14 09:40:06;;;;;;;;;;;;;;;25.44;87.21;101278.78;5092187;28;20405;-70
2021/08/14 09:42:48;;;;;;;;;;;;;;;25.67;86.63;101270.06;5074771;28;19977;-65
2021/08/14 09:45:16;;;;;;;;;;;;;;;25.99;83.41;101272.19;5093049;28;19924;-69
2021/08/14 09:47:43;;;;;;;;;;;;;;;26.11;80.24;101266.88;5092546;28;19928;-65
2021/08/14 09:50:10;;;;;;;;;;;;;;;26.23;80.49;101268.81;5093030;28;19930;-65
2021/08/14 09:52:36;;;;;;;;;;;;;;;26.74;81.62;101258.03;5092842;28;20014;-69
2021/08/14 09:55:03;;;;;;;;;;;;;;;27.27;77.46;101268.03;5092647;28;19950;-69
2021/08/14 09:57:30;;;;;;;;;;;;;;;27.13;79.15;101272.00;5092792;28;20463;-69
2021/08/14 09:59:57;;;;;;;;;;;;;;;27.11;76.09;101260.22;5092547;28;20395;-68
2021/08/14 10:02:24;;;;;;;;;;;;;;;27.10;76.30;101261.28;5092718;28;19928;-64
2021/08/14 10:04:51;;;;;;;;;;;;;;;26.88;79.32;101259.69;5092402;28;19932;-71
2021/08/14 10:07:18;;;;;;;;;;;;;;;27.17;78.16;101262.13;5092366;28;19931;-66
2021/08/14 10:09:44;;;;;;;;;;;;;;;27.68;77.69;101260.31;5092541;28;20692;-65
2021/08/14 10:12:11;;;;;;;;;;;;;;;28.06;67.23;101256.59;5092428;28;19925;-71
2021/08/14 10:14:39;;;;;;;;;;;;;;;28.67;63.67;101249.34;5092380;28;19924;-71
2021/08/14 10:17:06;;;;;;;;;;;;;;;28.40;62.71;101245.97;5092154;28;19924;-71
2021/08/14 10:19:32;;;;;;;;;;;;;;;27.53;62.83;101250.34;5092505;28;20044;-72
2021/08/14 10:21:59;;;;;;;;;;;;;;;28.26;63.91;101248.06;5074297;28;19924;-71
2021/08/14 10:24:25;;;;;;;;;;;;;;;26.85;64.54;101239.78;5091899;28;20007;-64
2021/08/14 10:27:03;;;;;;;;;;;;;;;27.34;67.86;101234.56;5092111;28;20562;-65
2021/08/14 10:29:43;;;;;;;;;;;;;;;27.48;64.90;101230.66;5092066;28;20011;-65
2021/08/14 10:32:09;;;;;;;;;;;;;;;27.61;66.25;101232.50;5092199;28;19935;-69
2021/08/14 10:34:37;;;;;;;;;;;;;;;27.43;66.85;101229.63;5091781;28;20107;-65
2021/08/14 10:37:30;;;;;;;;;;;;;;;27.99;69.77;101225.09;5091727;28;20019;-65
2021/08/14 10:39:56;;;;;;;;;;;;;;;27.35;59.99;101214.00;5092128;28;20367;-66
2021/08/14 10:42:38;;;;;;;;;;;;;;;27.37;56.63;101207.16;5091897;28;19934;-65
2021/08/14 10:45:14;;;;;;;;;;;;;;;27.07;57.28;101212.44;5073321;28;20364;-65
2021/08/14 10:47:43;;;;;;;;;;;;;;;26.56;60.02;101226.16;5091646;28;19925;-72
2021/08/14 10:50:09;;;;;;;;;;;;;;;26.62;62.30;101224.41;5092021;28;20046;-71
2021/08/14 10:52:36;;;;;;;;;;;;;;;26.82;63.76;101204.03;5091585;28;20358;-65
2021/08/14 10:55:04;;;;;;;;;;;;;;;27.13;60.06;101208.78;5091937;28;19956;-65
2021/08/14 10:57:38;;;;;;;;;;;;;;;27.35;60.15;101208.41;5091585;28;19930;-69
2021/08/14 11:00:05;;;;;;;;;;;;;;;27.42;60.13;101206.47;5091375;28;19930;-70
2021/08/14 11:02:35;;;;;;;;;;;;;;;27.34;60.68;101201.13;5090825;28;21549;-67
2021/08/14 11:05:01;;;;;;;;;;;;;;;27.08;60.99;101208.59;5091352;28;20023;-66
2021/08/14 11:07:31;;;;;;;;;;;;;;;27.48;59.30;101202.78;5091549;28;19924;-66
2021/08/14 11:10:09;;;;;;;;;;;;;;;27.76;60.04;101198.69;5091600;28;20371;-66
2021/08/14 11:12:36;;;;;;;;;;;;;;;28.59;61.88;101195.72;5091659;28;19928;-66
2021/08/14 11:15:14;;;;;;;;;;;;;;;28.44;55.72;101188.59;5091649;28;19970;-65
2021/08/14 11:17:41;;;;;;;;;;;;;;;28.28;54.75;101190.06;5091365;28;19947;-65
2021/08/14 11:20:23;;;;;;;;;;;;;;;27.87;56.47;101181.22;5091620;28;19956;-65
2021/08/14 11:22:51;;;;;;;;;;;;;;;28.44;54.09;101177.44;5090887;28;20430;-72
2021/08/14 11:25:21;;;;;;;;;;;;;;;27.87;53.21;101172.88;5091681;28;19930;-66
2021/08/14 11:27:54;;;;;;;;;;;;;;;26.97;55.93;101173.09;5091188;28;19928;-66
2021/08/14 11:30:23;;;;;;;;;;;;;;;26.81;61.88;101164.16;5091445;28;20399;-70
2021/08/14 11:32:50;;;;;;;;;;;;;;;27.34;60.05;101171.34;5091388;28;19978;-72
2021/08/14 11:35:17;;;;;;;;;;;;;;;27.40;57.01;101156.53;5091272;28;19924;-72
2021/08/14 11:37:51;;;;;;;;;;;;;;;27.76;55.61;101150.44;5091186;28;19950;-72
2021/08/14 11:40:20;;;;;;;;;;;;;;;28.10;53.29;101150.97;5091219;28;19959;-72
2021/08/14 11:42:53;;;;;;;;;;;;;;;28.80;53.35;101146.94;5091294;28;19924;-72
2021/08/14 11:45:20;;;;;;;;;;;;;;;28.26;52.76;101146.72;5091177;28;20369;-72
2021/08/14 11:47:46;;;;;;;;;;;;;;;28.62;52.60;101136.63;5090847;28;19924;-66
2021/08/14 11:50:14;;;;;;;;;;;;;;;29.06;53.74;101140.97;5091318;28;19930;-66
2021/08/14 11:52:40;;;;;;;;;;;;;;;29.65;49.94;101134.66;5091164;28;20046;-66
2021/08/14 11:55:07;;;;;;;;;;;;;;;29.18;48.98;101129.81;5091324;28;20030;-70
2021/08/14 11:57:35;;;;;;;;;;;;;;;29.49;50.15;101129.75;5090905;28;19963;-71
2021/08/14 12:00:05;;;;;;;;;;;;;;;29.59;48.48;101126.38;5091301;28;19925;-68
2021/08/14 12:02:32;;;;;;;;;;;;;;;29.15;47.93;101124.69;5073439;28;20048;-69
2021/08/14 12:04:58;;;;;;;;;;;;;;;29.77;48.30;101128.19;5094459;28;19964;-65
2021/08/14 12:07:26;;;;;;;;;;;;;;;29.85;47.95;101128.69;5094873;28;19928;-65
2021/08/14 12:09:52;;;;;;;;;;;;;;;29.89;44.36;101127.16;5094465;28;19924;-64
2021/08/14 12:12:19;;;;;;;;;;;;;;;29.15;47.64;101123.84;5094772;28;19928;-67
2021/08/14 12:14:46;;;;;;;;;;;;;;;29.66;46.48;101127.94;5094292;28;20399;-65
2021/08/14 12:17:13;;;;;;;;;;;;;;;30.20;46.75;101122.22;5094352;28;20483;-65
2021/08/14 12:19:46;;;;;;;;;;;;;;;30.67;46.09;101121.25;5094368;28;19975;-65
2021/08/14 12:22:15;;;;;;;;;;;;;;;29.98;45.46;101130.41;5094692;28;20341;-71
2021/08/14 12:24:44;;;;;;;;;;;;;;;29.03;46.51;101127.44;5094359;28;19939;-69
2021/08/14 12:27:23;;;;;;;;;;;;;;;27.94;47.33;101121.72;5059289;28;19931;-69
2021/08/14 12:29:49;;;;;;;;;;;;;;;28.06;51.86;101114.31;5093995;28;19962;-65
2021/08/14 12:32:16;;;;;;;;;;;;;;;28.51;49.06;101110.34;5094586;28;19924;-69